createdAt,value
2023-03-27T00:00:43.564Z,1.40
2023-03-27T00:07:25.849Z,1.67
2023-03-27T00:14:08.132Z,1.50
2023-03-27T00:20:51.588Z,1.33
2023-03-27T00:27:33.956Z,1.40
2023-03-27T00:34:16.308Z,1.73
2023-03-27T00:40:58.828Z,1.60
2023-03-27T00:47:41.803Z,1.60
2023-03-27T00:54:29.895Z,0.93
2023-03-27T01:01:14.522Z,0.80
2023-03-27T01:08:01.016Z,0.88
2023-03-27T01:15:06.568Z,1.23
2023-03-27T01:22:19.767Z,1.10
2023-03-27T01:29:25.112Z,1.15
2023-03-27T01:36:34.688Z,0.93
2023-03-27T01:43:35.095Z,1.10
2023-03-27T01:50:24.231Z,1.50
2023-03-27T01:57:20.609Z,1.40
2023-03-27T02:04:04.806Z,1.45
2023-03-27T02:10:53.634Z,1.25
2023-03-27T02:17:41.843Z,1.50
2023-03-27T02:24:24.389Z,1.80
2023-03-27T02:31:41.149Z,2.53
2023-03-27T02:38:28.529Z,7.78
2023-03-27T02:45:29.668Z,6.75
2023-03-27T02:52:22.706Z,10.68
2023-03-27T02:59:13.036Z,11.13
2023-03-27T03:05:57.523Z,10.88
2023-03-27T03:12:39.982Z,9.45
2023-03-27T03:19:23.922Z,12.25
2023-03-27T03:26:06.635Z,14.00
2023-03-27T03:33:00.066Z,8.70
2023-03-27T03:39:43.092Z,9.73
2023-03-27T03:46:26.367Z,16.42
2023-03-27T03:53:09.077Z,7.82
2023-03-27T03:59:51.612Z,10.63
2023-03-27T04:06:43.107Z,9.88
2023-03-27T04:13:25.881Z,11.10
2023-03-27T04:20:14.961Z,15.57
2023-03-27T04:27:04.234Z,8.77
2023-03-27T04:33:56.376Z,8.60
2023-03-27T04:40:39.499Z,10.35
2023-03-27T04:47:22.018Z,11.20
2023-03-27T04:54:08.719Z,8.30
2023-03-27T05:00:57.723Z,9.40
2023-03-27T05:07:44.237Z,5.32
2023-03-27T05:14:31.513Z,15.38
2023-03-27T05:21:14.810Z,11.32
2023-03-27T05:27:57.964Z,10.20
2023-03-27T05:34:45.870Z,8.35
2023-03-27T05:41:31.255Z,11.00
2023-03-27T05:48:13.728Z,7.57
2023-03-27T05:54:57.672Z,6.90
2023-03-27T06:01:40.492Z,15.05
2023-03-27T06:08:23.083Z,8.18
2023-03-27T06:15:07.472Z,9.85
2023-03-27T06:21:55.600Z,9.88
2023-03-27T06:28:39.159Z,7.20
2023-03-27T06:35:23.652Z,8.55
2023-03-27T06:42:10.914Z,8.23
2023-03-27T06:49:16.267Z,6.07
2023-03-27T06:55:58.756Z,12.45
2023-03-27T07:02:43.596Z,11.93
2023-03-27T07:09:51.399Z,11.05
2023-03-27T07:16:39.038Z,10.40
2023-03-27T07:23:21.758Z,6.88
2023-03-27T07:30:13.122Z,12.40
2023-03-27T07:36:59.392Z,8.65
2023-03-27T07:43:42.189Z,5.93
2023-03-27T07:50:25.587Z,5.97
2023-03-27T07:57:08.820Z,7.63
2023-03-27T08:04:13.871Z,6.30
2023-03-27T08:10:59.783Z,8.80
2023-03-27T08:17:47.936Z,5.55
2023-03-27T08:24:30.699Z,8.85
2023-03-27T08:31:32.021Z,6.15
2023-03-27T08:38:26.752Z,7.82
2023-03-27T08:45:36.809Z,8.35
2023-03-27T08:52:29.835Z,6.18
2023-03-27T08:59:17.328Z,8.05
2023-03-27T09:06:20.833Z,5.85
2023-03-27T09:13:36.651Z,8.48
2023-03-27T09:20:28.507Z,5.65
2023-03-27T09:27:19.137Z,7.00
2023-03-27T09:34:30.860Z,5.97
2023-03-27T09:41:17.150Z,5.80
2023-03-27T09:48:05.326Z,5.30
2023-03-27T09:54:56.166Z,6.88
2023-03-27T10:01:48.553Z,3.95
2023-03-27T10:08:40.653Z,5.35
2023-03-27T10:15:38.814Z,7.20
2023-03-27T10:22:31.499Z,7.00
2023-03-27T10:29:22.502Z,7.38
2023-03-27T10:36:08.370Z,4.43
2023-03-27T10:42:51.155Z,5.63
2023-03-27T10:49:49.433Z,4.75
2023-03-27T10:56:53.607Z,3.08
2023-03-27T11:03:45.065Z,6.43
2023-03-27T11:10:37.356Z,3.72
2023-03-27T11:17:24.542Z,6.20
2023-03-27T11:24:29.709Z,4.43
2023-03-27T11:31:40.974Z,2.47
2023-03-27T11:38:32.873Z,5.03
2023-03-27T11:45:23.696Z,3.92
2023-03-27T11:52:39.794Z,5.53
2023-03-27T11:59:40.357Z,6.78
2023-03-27T12:06:42.634Z,3.65
2023-03-27T12:13:58.315Z,6.90
2023-03-27T12:21:21.104Z,3.25
2023-03-27T12:28:22.429Z,4.45
2023-03-27T12:35:39.324Z,7.57
2023-03-27T12:42:50.521Z,2.83
2023-03-27T12:49:47.559Z,6.47
2023-03-27T12:56:39.494Z,6.15
2023-03-27T13:04:03.898Z,5.43
2023-03-27T13:10:53.660Z,2.80
2023-03-27T13:17:57.952Z,3.13
2023-03-27T13:25:18.130Z,3.83
2023-03-27T13:32:32.580Z,3.83
2023-03-27T13:39:24.887Z,6.70
2023-03-27T13:46:19.231Z,12.05
2023-03-27T13:53:38.441Z,3.95
2023-03-27T14:00:29.896Z,3.90
2023-03-27T14:07:45.899Z,5.35
2023-03-27T14:14:58.394Z,5.70
2023-03-27T14:22:01.308Z,4.70
2023-03-27T14:28:58.759Z,4.70
2023-03-27T14:35:56.910Z,5.68
2023-03-27T14:42:40.324Z,6.63
2023-03-27T14:49:25.921Z,4.90
2023-03-27T14:56:31.335Z,4.95
2023-03-27T15:03:26.792Z,5.80
2023-03-27T15:10:26.261Z,7.43
2023-03-27T15:17:46.897Z,4.43
2023-03-27T15:24:36.856Z,5.68
2023-03-27T15:31:19.635Z,3.67
2023-03-27T15:38:04.131Z,3.67
2023-03-27T15:44:46.587Z,5.38
2023-03-27T15:51:30.978Z,5.28
2023-03-27T15:58:28.457Z,2.80
2023-03-27T16:05:16.304Z,1.90
2023-03-27T16:11:58.869Z,4.38
2023-03-27T16:18:41.498Z,3.33
2023-03-27T16:25:23.811Z,4.95
2023-03-27T16:32:06.611Z,5.00
2023-03-27T16:38:49.038Z,3.45
2023-03-27T16:45:31.899Z,1.38
2023-03-27T16:52:14.308Z,2.50
2023-03-27T16:58:56.636Z,3.03
2023-03-27T17:05:39.098Z,2.55
2023-03-27T17:12:21.450Z,1.83
2023-03-27T17:19:04.160Z,2.72
2023-03-27T17:25:47.433Z,4.00
2023-03-27T17:32:29.800Z,3.75
2023-03-27T17:39:12.736Z,4.18
2023-03-27T17:45:55.240Z,11.98
2023-03-27T17:52:37.524Z,4.78
2023-03-27T17:59:20.936Z,4.50
2023-03-27T18:06:04.187Z,10.30
2023-03-27T18:12:47.363Z,14.00
2023-03-27T18:19:29.832Z,8.90
2023-03-27T18:26:12.100Z,8.15
2023-03-27T18:32:54.426Z,4.43
2023-03-27T18:39:37.569Z,3.75
2023-03-27T18:46:19.982Z,3.15
2023-03-27T18:53:02.343Z,4.25
2023-03-27T18:59:44.860Z,6.22
2023-03-27T19:06:27.207Z,13.82
2023-03-27T19:13:09.596Z,8.05
2023-03-27T19:20:18.034Z,5.55
2023-03-27T19:27:24.119Z,3.47
2023-03-27T19:34:07.021Z,2.63
2023-03-27T19:40:49.355Z,3.63
2023-03-27T19:47:31.759Z,2.50
2023-03-27T19:54:14.390Z,2.30
2023-03-27T20:00:57.519Z,4.55
2023-03-27T20:07:39.950Z,6.22
2023-03-27T20:14:24.500Z,2.58
2023-03-27T20:21:07.270Z,5.10
2023-03-27T20:27:49.947Z,5.00
2023-03-27T20:34:32.639Z,3.95
2023-03-27T20:41:15.860Z,4.82
2023-03-27T20:48:03.091Z,8.38
2023-03-27T20:54:45.511Z,5.50
2023-03-27T21:01:29.846Z,3.25
2023-03-27T21:08:12.839Z,5.00
2023-03-27T21:14:55.339Z,6.70
2023-03-27T21:21:38.670Z,4.43
2023-03-27T21:28:20.947Z,3.33
2023-03-27T21:35:03.375Z,4.38
2023-03-27T21:41:45.842Z,2.53
2023-03-27T21:48:28.220Z,4.20
2023-03-27T21:55:10.570Z,3.53
2023-03-27T22:01:53.730Z,3.58
2023-03-27T22:08:37.717Z,2.55
2023-03-27T22:15:20.602Z,4.57
2023-03-27T22:22:02.896Z,4.15
2023-03-27T22:28:45.271Z,6.95
2023-03-27T22:35:27.749Z,3.95
2023-03-27T22:42:10.167Z,2.30
2023-03-27T22:48:58.926Z,3.92
2023-03-27T22:55:41.250Z,9.00
2023-03-27T23:02:23.638Z,5.13
2023-03-27T23:09:06.179Z,4.63
2023-03-27T23:15:50.560Z,4.10
2023-03-27T23:22:32.835Z,4.30
2023-03-27T23:29:15.246Z,4.35
2023-03-27T23:36:03.741Z,4.88
2023-03-27T23:42:46.094Z,5.57
2023-03-27T23:49:28.415Z,2.45
2023-03-27T23:56:11.598Z,5.82
